Terminal Aerodrome Forecast
Issued by NWS Binghamton, NY

Home | Current Version | Previous Version | Text Only | Print | Product List | Glossary On
Versions: 1 2 3 4 5 6 7 8 9 10 11 12 13 14 15 16 17 18 19 20 21 22 23
326
FTUS41 KBGM 200836 AAA
TAFAVP
TAF AMD
KAVP 200836Z 2009/2106 VRB03KT P6SM BKN015
     FM201800 18005KT 5SM -RA OVC015
     FM202000 17005KT 2SM -RA OVC008
     FM210300 19004KT 4SM BR OVC008=

USA.gov is the U.S. government's official web portal to all federal, state and local government web resources and services.